Ft Sturla — IBXV — position and weather

sailwx.info

Track history (hours):
 
Tides and Currents Weather Stations Pressure Air Temp Water Temp Dewpoint Dewpoint Depression Visibility Wind Speed Wind Dir Waves Ship Positions

Ft Sturla

Last reported at 2017-Jan-15 19:31 UTC. Time now 2017-Jan-16 19:21 UTC.
Position N 37°34' W 000°59'.

Length 120 m; draft 7.6 m.

Type: Ship (hazmat cat A). MMSI: 247282200.

Date/timePositionNaut miles runAvg speedWind from/ knotsBaromVisibWave heightAir tempDewpointWater temp
2017-Jan-15 19:31N 37°34' W 000°59'8 8.7
2017-Jan-15 18:33N 37°31' W 000°50'1010.0
2017-Jan-15 17:33N 37°33' W 000°37'1010.3
2017-Jan-15 16:33N 37°41' W 000°29'1110.7
2017-Jan-15 15:33N 37°50' W 000°22'1010.3
2017-Jan-15 14:33N 37°58' W 000°14'14310.2
2017-Jan-15 00:30N 40°09' E 001°01'8 0.2
2017-Jan-13 06:32N 40°17' E 001°03'9 9.2
2017-Jan-13 05:33N 40°08' E 001°01'10 9.6
2017-Jan-13 04:33N 39°59' E 000°59'14511.0
2017-Jan-12 15:18N 37°47' W 000°19'911.5
2017-Jan-12 14:33N 37°39' W 000°25'1111.4
2017-Jan-12 13:33N 37°31' W 000°34'1111.3
2017-Jan-12 12:33N 37°23' W 000°45'1111.3
2017-Jan-12 11:33N 37°16' W 000°55'1111.6
2017-Jan-12 10:33N 37°08' W 001°06'21210.6
2017-Jan-11 14:33N 35°56' W 005°14'4 4.2
2017-Jan-11 13:31N 35°54' W 005°19'0 0.0
2017-Jan-11 12:31N 35°54' W 005°19'0 0.0
2017-Jan-11 11:31N 35°54' W 005°19'0 0.0
2017-Jan-11 10:31N 35°54' W 005°19'2 1.8
2017-Jan-11 09:33N 35°55' W 005°18'12810.4
2017-Jan-10 21:13N 36°21' W 002°42'7 9.8
2017-Jan-10 20:30N 36°22' W 002°34'1010.2
2017-Jan-10 19:33N 36°24' W 002°22'54 1.1
2017-Jan-08 19:15N 36°38' W 001°18'29 0.7
2017-Jan-07 01:30N 37°03' W 000°58'3 1.6
2017-Jan-06 23:21N 37°06' W 000°56'1 1.2
2017-Jan-06 22:32N 37°07' W 000°56'2 0.8
2017-Jan-06 20:13N 37°08' W 000°54'1 0.7
2017-Jan-06 18:32N 37°08' W 000°53'3 0.8
2017-Jan-06 15:10N 37°08' W 000°50'1 1.0
2017-Jan-06 14:28N 37°08' W 000°49'1 1.0
2017-Jan-06 13:33N 37°08' W 000°48'1 0.9
2017-Jan-06 12:33N 37°08' W 000°47'1 1.0
2017-Jan-06 11:16N 37°07' W 000°45'1 1.2
2017-Jan-06 10:22N 37°07' W 000°44'1 1.3
2017-Jan-06 09:31N 37°07' W 000°42'1 1.3
2017-Jan-06 08:33N 37°06' W 000°41'  
Track history (hours):
 
Tides and Currents Weather Stations Pressure Air Temp Water Temp Dewpoint Dewpoint Depression Visibility Wind Speed Wind Dir Waves Ship Positions

Ft Sturla

Last reported at 2017-Jan-15 19:31 UTC. Time now 2017-Jan-16 19:21 UTC.
Position N 37°34' W 000°59'.

Length 120 m; draft 7.6 m.

Type: Ship (hazmat cat A). MMSI: 247282200.

Date/timePositionNaut miles runAvg speedWind from/ knotsBaromVisibWave heightAir tempDewpointWater temp
2017-Jan-15 19:31N 37°34' W 000°59'8 8.7
2017-Jan-15 18:33N 37°31' W 000°50'1010.0
2017-Jan-15 17:33N 37°33' W 000°37'1010.3
2017-Jan-15 16:33N 37°41' W 000°29'1110.7
2017-Jan-15 15:33N 37°50' W 000°22'1010.3
2017-Jan-15 14:33N 37°58' W 000°14'14310.2
2017-Jan-15 00:30N 40°09' E 001°01'8 0.2
2017-Jan-13 06:32N 40°17' E 001°03'9 9.2
2017-Jan-13 05:33N 40°08' E 001°01'10 9.6
2017-Jan-13 04:33N 39°59' E 000°59'14511.0
2017-Jan-12 15:18N 37°47' W 000°19'911.5
2017-Jan-12 14:33N 37°39' W 000°25'1111.4
2017-Jan-12 13:33N 37°31' W 000°34'1111.3
2017-Jan-12 12:33N 37°23' W 000°45'1111.3
2017-Jan-12 11:33N 37°16' W 000°55'1111.6
2017-Jan-12 10:33N 37°08' W 001°06'21210.6
2017-Jan-11 14:33N 35°56' W 005°14'4 4.2
2017-Jan-11 13:31N 35°54' W 005°19'0 0.0
2017-Jan-11 12:31N 35°54' W 005°19'0 0.0
2017-Jan-11 11:31N 35°54' W 005°19'0 0.0
2017-Jan-11 10:31N 35°54' W 005°19'2 1.8
2017-Jan-11 09:33N 35°55' W 005°18'12810.4
2017-Jan-10 21:13N 36°21' W 002°42'7 9.8
2017-Jan-10 20:30N 36°22' W 002°34'1010.2
2017-Jan-10 19:33N 36°24' W 002°22'54 1.1
2017-Jan-08 19:15N 36°38' W 001°18'29 0.7
2017-Jan-07 01:30N 37°03' W 000°58'3 1.6
2017-Jan-06 23:21N 37°06' W 000°56'1 1.2
2017-Jan-06 22:32N 37°07' W 000°56'2 0.8
2017-Jan-06 20:13N 37°08' W 000°54'1 0.7
2017-Jan-06 18:32N 37°08' W 000°53'3 0.8
2017-Jan-06 15:10N 37°08' W 000°50'1 1.0
2017-Jan-06 14:28N 37°08' W 000°49'1 1.0
2017-Jan-06 13:33N 37°08' W 000°48'1 0.9
2017-Jan-06 12:33N 37°08' W 000°47'1 1.0
2017-Jan-06 11:16N 37°07' W 000°45'1 1.2
2017-Jan-06 10:22N 37°07' W 000°44'1 1.3
2017-Jan-06 09:31N 37°07' W 000°42'1 1.3
2017-Jan-06 08:33N 37°06' W 000°41'  

Dump ship's entire track history